Time;durP1;ratioP1;P1;durP2;ratioP2;P2;SDS_P1;SDS_P2;PMS_P1;PMS_P2;Temp;Humidity;BMP_temperature;BMP_pressure;BME280_temperature;BME280_humidity;BME280_pressure;Samples;Min_cycle;Max_cycle;Signal;HPM_P1;HPM_P2
2021/07/12 00:00:15;;;;;;;5.60;5.03;;;20.20;70.80;;;;;;5009257;28;20381;-96
2021/07/12 00:02:40;;;;;;;6.43;5.60;;;20.10;70.70;;;;;;5007597;28;20028;-96
2021/07/12 00:05:07;;;;;;;5.35;4.85;;;20.10;70.80;;;;;;5000627;28;20617;-94
2021/07/12 00:07:33;;;;;;;6.05;5.30;;;20.10;70.70;;;;;;4998006;28;20030;-95
2021/07/12 00:09:59;;;;;;;6.50;5.30;;;20.10;70.70;;;;;;5006990;28;20105;-93
2021/07/12 00:12:25;;;;;;;6.15;5.55;;;20.10;70.60;;;;;;4998362;28;20045;-92
2021/07/12 00:14:54;;;;;;;7.20;5.88;;;20.10;70.60;;;;;;4996148;28;20084;-95
2021/07/12 00:17:19;;;;;;;5.82;5.00;;;20.10;70.70;;;;;;4998153;28;20057;-93
2021/07/12 00:19:45;;;;;;;6.40;5.50;;;20.10;70.80;;;;;;5001639;28;20018;-93
2021/07/12 00:22:10;;;;;;;6.13;5.53;;;20.00;70.80;;;;;;5000558;28;20234;-92
2021/07/12 00:24:36;;;;;;;6.22;5.63;;;20.00;70.90;;;;;;5002564;28;20034;-93
2021/07/12 00:27:02;;;;;;;6.20;5.60;;;19.90;71.00;;;;;;5009356;28;20053;-92
2021/07/12 00:29:27;;;;;;;5.95;5.38;;;19.90;71.00;;;;;;4996701;28;20030;-92
2021/07/12 00:31:53;;;;;;;7.35;5.82;;;19.90;71.10;;;;;;4993634;28;20098;-93
2021/07/12 00:34:18;;;;;;;6.13;5.53;;;19.90;71.00;;;;;;5004958;28;20629;-95
2021/07/12 00:36:44;;;;;;;6.78;6.03;;;20.00;71.10;;;;;;5013532;28;20060;-96
2021/07/12 00:39:09;;;;;;;7.20;5.85;;;19.90;71.00;;;;;;5011772;28;20088;-94
2021/07/12 00:41:38;;;;;;;7.50;6.47;;;19.90;71.00;;;;;;4992300;28;20036;-96
2021/07/12 00:44:05;;;;;;;6.78;6.10;;;19.80;71.20;;;;;;4994617;28;20085;-96
2021/07/12 00:46:30;;;;;;;7.88;7.07;;;19.90;71.30;;;;;;4994585;28;20026;-95
2021/07/12 00:48:56;;;;;;;7.60;6.68;;;19.90;71.40;;;;;;5004283;28;20105;-95
2021/07/12 00:51:22;;;;;;;7.90;6.78;;;19.90;71.50;;;;;;4992530;28;20041;-96
2021/07/12 00:53:49;;;;;;;7.72;6.45;;;19.90;71.60;;;;;;5005018;28;20010;-96
2021/07/12 00:56:15;;;;;;;8.95;7.78;;;19.90;71.60;;;;;;5007580;28;20027;-96
2021/07/12 00:58:41;;;;;;;8.10;6.53;;;19.90;71.70;;;;;;5007239;28;20029;-95
2021/07/12 01:01:07;;;;;;;7.20;6.45;;;19.90;71.70;;;;;;5022183;28;20041;-96
2021/07/12 01:03:33;;;;;;;7.90;7.10;;;20.00;71.70;;;;;;5025680;28;20077;-96
2021/07/12 01:05:59;;;;;;;8.13;6.90;;;20.00;71.80;;;;;;5016747;28;20034;-96
2021/07/12 01:08:25;;;;;;;7.97;6.43;;;20.00;71.80;;;;;;5011896;28;20019;-96
2021/07/12 01:11:11;;;;;;;9.27;7.63;;;20.00;72.50;;;;;;5009310;28;20056;-96
2021/07/12 01:13:46;;;;;;;7.45;6.53;;;20.00;71.90;;;;;;5006777;28;20027;-96
2021/07/12 01:16:50;;;;;;;7.45;6.10;;;19.90;71.90;;;;;;5008645;28;20018;-96
2021/07/12 01:19:24;;;;;;;6.82;6.13;;;19.90;72.00;;;;;;5016758;28;20010;-96
2021/07/12 01:22:41;;;;;;;8.55;7.30;;;19.90;72.10;;;;;;4997711;28;20433;-96
2021/07/12 01:25:25;;;;;;;8.50;7.10;;;19.90;72.10;;;;;;4974178;28;20042;-96
2021/07/12 01:28:24;;;;;;;8.63;7.30;;;19.90;72.20;;;;;;4996902;28;20458;-96
2021/07/12 01:31:15;;;;;;;9.00;7.50;;;19.90;72.20;;;;;;4997164;28;20461;-93
2021/07/12 01:34:05;;;;;;;8.45;7.10;;;19.90;72.20;;;;;;5009268;28;20029;-93
2021/07/12 01:36:45;;;;;;;9.40;7.82;;;19.90;72.40;;;;;;5016419;28;20030;-95
2021/07/12 01:39:13;;;;;;;8.05;7.03;;;19.90;72.40;;;;;;5012233;28;20053;-94
2021/07/12 01:42:01;;;;;;;8.50;7.55;;;19.90;72.20;;;;;;5016134;28;20046;-93
2021/07/12 01:44:59;;;;;;;8.75;7.32;;;19.90;72.30;;;;;;5015775;28;20663;-94
2021/07/12 01:47:39;;;;;;;8.13;6.75;;;19.80;72.40;;;;;;4986113;28;20031;-95
2021/07/12 01:50:27;;;;;;;7.95;6.88;;;19.80;72.30;;;;;;4997060;28;20018;-95
2021/07/12 01:53:16;;;;;;;8.20;6.78;;;19.80;72.20;;;;;;4995153;28;20081;-95
2021/07/12 01:55:55;;;;;;;7.63;6.55;;;19.90;72.20;;;;;;4997220;28;20057;-95
2021/07/12 01:58:29;;;;;;;8.95;7.13;;;19.90;72.90;;;;;;4996880;28;20029;-96
2021/07/12 02:00:56;;;;;;;8.00;6.45;;;19.80;72.20;;;;;;4997596;28;20457;-95
2021/07/12 02:03:23;;;;;;;8.73;7.53;;;19.80;72.20;;;;;;5015398;28;20022;-95
2021/07/12 02:05:50;;;;;;;7.03;6.25;;;19.80;72.20;;;;;;5015837;28;20022;-95
2021/07/12 02:08:22;;;;;;;7.60;6.47;;;19.80;72.20;;;;;;5006885;28;20023;-95
2021/07/12 02:10:50;;;;;;;7.75;6.30;;;19.80;72.30;;;;;;4995219;28;20030;-95
2021/07/12 02:13:18;;;;;;;6.97;6.20;;;19.80;72.30;;;;;;4995596;28;20029;-93
2021/07/12 02:15:47;;;;;;;8.60;7.35;;;19.80;72.10;;;;;;4996285;28;20519;-93
2021/07/12 02:18:14;;;;;;;8.50;6.75;;;19.80;72.10;;;;;;4994782;28;20044;-95
2021/07/12 02:20:40;;;;;;;7.50;6.32;;;19.80;72.20;;;;;;4996424;28;20470;-96
2021/07/12 02:23:08;;;;;;;7.85;6.60;;;19.70;72.20;;;;;;5000657;28;20056;-94
2021/07/12 02:25:35;;;;;;;7.25;5.93;;;19.70;72.30;;;;;;5013245;28;20057;-94
2021/07/12 02:28:02;;;;;;;8.23;6.45;;;19.70;72.20;;;;;;4994580;28;20121;-92
2021/07/12 02:30:29;;;;;;;7.38;6.40;;;19.70;72.20;;;;;;5005371;28;20112;-93
2021/07/12 02:32:56;;;;;;;7.10;6.20;;;19.70;72.30;;;;;;5001653;28;20569;-95
2021/07/12 02:35:21;;;;;;;4.93;4.18;;;19.60;72.50;;;;;;5007090;28;20053;-96
2021/07/12 02:37:49;;;;;;;5.90;5.28;;;19.50;72.80;;;;;;5016094;28;20018;-96
2021/07/12 02:40:17;;;;;;;7.45;6.30;;;19.50;72.90;;;;;;5014514;28;20120;-95
2021/07/12 02:42:45;;;;;;;7.38;6.55;;;19.50;73.00;;;;;;5014881;28;20030;-94
2021/07/12 02:45:12;;;;;;;7.47;6.45;;;19.50;73.00;;;;;;5015102;28;20034;-94
2021/07/12 02:47:39;;;;;;;8.13;6.15;;;19.60;73.10;;;;;;5015581;28;20105;-95
2021/07/12 02:50:08;;;;;;;11.57;10.02;;;19.50;73.20;;;;;;5010669;28;20057;-94
2021/07/12 02:52:57;;;;;;;13.07;10.20;;;19.50;73.70;;;;;;4997359;28;20030;-94
2021/07/12 02:55:23;;;;;;;8.60;7.63;;;19.50;74.10;;;;;;4997589;28;20038;-94
2021/07/12 02:57:49;;;;;;;8.85;7.95;;;19.50;74.20;;;;;;4999129;28;20038;-93
2021/07/12 03:00:15;;;;;;;10.82;9.35;;;19.50;74.30;;;;;;4998955;28;20050;-95
2021/07/12 03:02:41;;;;;;;10.25;9.02;;;19.50;74.50;;;;;;4997845;28;20081;-93
2021/07/12 03:05:09;;;;;;;10.35;8.57;;;19.50;74.60;;;;;;5001514;28;20022;-93
2021/07/12 03:07:45;;;;;;;8.25;7.10;;;19.50;74.70;;;;;;5014676;28;20029;-92
2021/07/12 03:10:19;;;;;;;9.15;7.80;;;19.50;74.50;;;;;;5010908;28;20026;-91
2021/07/12 03:12:51;;;;;;;10.48;8.70;;;19.50;74.30;;;;;;4993873;28;20026;-93
2021/07/12 03:15:24;;;;;;;10.25;8.75;;;19.60;74.40;;;;;;4993034;28;20022;-92
2021/07/12 03:17:54;;;;;;;7.95;6.90;;;19.50;74.40;;;;;;4992802;28;20081;-92
2021/07/12 03:20:21;;;;;;;8.18;6.97;;;19.60;74.30;;;;;;4995240;28;20025;-93
2021/07/12 03:22:53;;;;;;;9.73;8.27;;;19.60;74.20;;;;;;4997055;28;20022;-94
2021/07/12 03:25:28;;;;;;;10.18;7.75;;;19.60;74.20;;;;;;4996113;28;20038;-94
2021/07/12 03:27:56;;;;;;;8.93;7.47;;;19.60;74.20;;;;;;4995121;28;20022;-93
2021/07/12 03:30:25;;;;;;;8.57;7.57;;;19.60;74.20;;;;;;4995035;28;20093;-94
2021/07/12 03:32:52;;;;;;;9.60;8.15;;;19.60;74.20;;;;;;4994381;28;20018;-93
2021/07/12 03:35:19;;;;;;;9.20;7.45;;;19.60;74.30;;;;;;5013068;28;20022;-93
2021/07/12 03:37:45;;;;;;;8.82;7.50;;;19.60;74.30;;;;;;5014830;28;20066;-92
2021/07/12 03:40:11;;;;;;;13.93;10.15;;;19.60;74.40;;;;;;5016073;28;20056;-92
2021/07/12 03:42:38;;;;;;;10.43;9.32;;;19.60;74.70;;;;;;5015485;28;20034;-93
2021/07/12 03:45:06;;;;;;;10.40;8.93;;;19.60;74.70;;;;;;5013570;28;20124;-95
2021/07/12 03:47:36;;;;;;;8.02;6.88;;;19.60;74.60;;;;;;5013105;28;20026;-96
2021/07/12 03:50:12;;;;;;;10.52;9.38;;;19.70;74.50;;;;;;5015535;28;20234;-96
2021/07/12 03:52:51;;;;;;;8.80;7.50;;;19.70;74.50;;;;;;5013585;28;20026;-92
2021/07/12 03:55:20;;;;;;;10.70;9.20;;;19.80;74.40;;;;;;5013854;28;20076;-94
2021/07/12 03:57:46;;;;;;;9.48;8.25;;;19.80;74.30;;;;;;5013092;28;20022;-96
2021/07/12 04:00:15;;;;;;;10.45;7.80;;;19.80;74.30;;;;;;5012689;28;20030;-95
2021/07/12 04:02:42;;;;;;;9.27;8.07;;;19.80;74.20;;;;;;5012029;28;20100;-96
2021/07/12 04:05:08;;;;;;;9.25;7.78;;;19.80;74.30;;;;;;5013654;28;20431;-93
2021/07/12 04:07:35;;;;;;;7.18;6.45;;;19.80;74.30;;;;;;5013452;28;20060;-93
2021/07/12 04:10:00;;;;;;;7.25;6.50;;;19.80;74.30;;;;;;5003579;28;20022;-91
2021/07/12 04:12:26;;;;;;;9.30;8.00;;;19.80;74.30;;;;;;4992973;28;20046;-92
2021/07/12 04:14:53;;;;;;;10.27;8.95;;;19.80;74.30;;;;;;4993441;28;20032;-92
2021/07/12 04:17:20;;;;;;;9.52;8.52;;;19.80;74.40;;;;;;4992434;28;20102;-95
2021/07/12 04:19:46;;;;;;;9.68;8.43;;;19.80;74.40;;;;;;4993800;28;20045;-94
2021/07/12 04:22:11;;;;;;;9.32;8.25;;;19.80;74.40;;;;;;4992719;28;20026;-95
2021/07/12 04:24:37;;;;;;;12.35;10.73;;;19.80;74.30;;;;;;5011263;28;20531;-94
2021/07/12 04:27:03;;;;;;;11.40;9.68;;;19.80;74.30;;;;;;5013514;28;20481;-93
2021/07/12 04:29:29;;;;;;;12.15;10.25;;;19.90;74.40;;;;;;5013448;28;20032;-96
2021/07/12 04:31:56;;;;;;;13.80;11.93;;;19.90;74.70;;;;;;5014433;28;20014;-94
2021/07/12 04:34:22;;;;;;;13.48;11.52;;;19.80;74.80;;;;;;5011623;28;20448;-91
2021/07/12 04:36:48;;;;;;;13.35;11.35;;;19.80;75.00;;;;;;5013279;28;20512;-94
2021/07/12 04:39:13;;;;;;;12.98;10.35;;;19.80;75.10;;;;;;5013316;28;20026;-94
2021/07/12 04:41:39;;;;;;;12.50;11.20;;;19.80;75.20;;;;;;5011043;28;20053;-94
2021/07/12 04:44:05;;;;;;;13.10;10.00;;;19.80;75.20;;;;;;5012844;28;20393;-94
2021/07/12 04:46:30;;;;;;;13.90;12.32;;;19.80;75.20;;;;;;5013676;28;20532;-91
2021/07/12 04:48:56;;;;;;;11.55;9.77;;;19.90;75.30;;;;;;5012831;28;20018;-91
2021/07/12 04:51:21;;;;;;;12.10;10.55;;;19.80;75.30;;;;;;5012530;28;20085;-92
2021/07/12 04:53:50;;;;;;;10.65;9.48;;;19.90;75.40;;;;;;5010790;28;20022;-93
2021/07/12 04:56:18;;;;;;;9.52;8.52;;;19.90;75.30;;;;;;4999242;28;20030;-91
2021/07/12 04:58:47;;;;;;;10.07;8.40;;;19.90;75.30;;;;;;5000111;28;20018;-90
2021/07/12 05:01:16;;;;;;;11.82;10.50;;;19.90;75.20;;;;;;5010392;28;20025;-91
2021/07/12 05:03:44;;;;;;;7.63;6.82;;;19.90;75.20;;;;;;4996560;28;20038;-92
2021/07/12 05:06:09;;;;;;;10.63;9.05;;;20.00;74.90;;;;;;5003418;28;20026;-96
2021/07/12 05:08:35;;;;;;;10.23;8.82;;;20.10;74.90;;;;;;4998438;28;20500;-96
2021/07/12 05:11:01;;;;;;;9.30;8.32;;;20.10;74.80;;;;;;5000975;28;20026;-96
2021/07/12 05:13:29;;;;;;;9.32;7.63;;;20.10;74.60;;;;;;5012595;28;20063;-96
2021/07/12 05:15:55;;;;;;;14.15;12.65;;;20.20;74.70;;;;;;5012879;28;20481;-94
2021/07/12 05:18:20;;;;;;;10.63;9.52;;;20.10;74.90;;;;;;5012572;28;20026;-95
2021/07/12 05:20:46;;;;;;;10.88;9.57;;;20.20;74.80;;;;;;5012271;28;20014;-94
2021/07/12 05:23:12;;;;;;;9.75;8.75;;;20.40;74.60;;;;;;5012632;28;20095;-93
2021/07/12 05:25:37;;;;;;;9.30;8.30;;;20.50;74.00;;;;;;5013124;28;20037;-96
2021/07/12 05:28:05;;;;;;;9.35;8.35;;;20.70;73.60;;;;;;5012996;28;20022;-95
2021/07/12 05:30:31;;;;;;;11.43;9.88;;;20.90;73.00;;;;;;5011902;28;20117;-92
2021/07/12 05:32:56;;;;;;;7.90;7.05;;;21.00;72.50;;;;;;5012299;28;20018;-91
2021/07/12 05:35:22;;;;;;;7.72;6.68;;;21.20;72.10;;;;;;4994221;28;20081;-92
2021/07/12 05:37:47;;;;;;;11.43;9.73;;;21.30;71.90;;;;;;4993643;28;20019;-92
2021/07/12 05:40:13;;;;;;;8.75;7.00;;;21.30;71.60;;;;;;4992524;28;20080;-92
2021/07/12 05:42:42;;;;;;;12.23;10.88;;;21.40;71.50;;;;;;4995717;28;20026;-94
2021/07/12 05:45:11;;;;;;;11.65;10.35;;;21.50;71.10;;;;;;5002912;28;20547;-94
2021/07/12 05:47:37;;;;;;;11.13;10.02;;;21.50;70.80;;;;;;5016409;28;20026;-95
2021/07/12 05:50:04;;;;;;;11.73;9.10;;;21.40;70.90;;;;;;5006884;28;20504;-94
2021/07/12 05:52:32;;;;;;;9.10;7.55;;;21.70;70.70;;;;;;4995995;28;20110;-93
2021/07/12 05:54:59;;;;;;;11.27;9.70;;;22.00;70.00;;;;;;4999308;28;20026;-93
2021/07/12 05:57:25;;;;;;;12.45;10.10;;;22.20;69.40;;;;;;5014697;28;20034;-94
2021/07/12 05:59:51;;;;;;;11.30;10.05;;;22.20;69.00;;;;;;5010713;28;20496;-96
2021/07/12 06:02:18;;;;;;;10.07;9.07;;;22.10;68.90;;;;;;5002973;28;20022;-96
2021/07/12 06:04:44;;;;;;;9.35;7.72;;;22.20;69.10;;;;;;5012096;28;20026;-94
2021/07/12 06:07:11;;;;;;;11.10;9.63;;;22.40;68.70;;;;;;5004952;28;20026;-96
2021/07/12 06:09:36;;;;;;;10.10;9.10;;;22.60;68.40;;;;;;5004161;28;20018;-94
2021/07/12 06:12:10;;;;;;;13.02;11.65;;;22.90;67.90;;;;;;5013263;28;20538;-95
2021/07/12 06:14:39;;;;;;;11.73;10.48;;;22.80;67.60;;;;;;5006580;28;20026;-95
2021/07/12 06:17:04;;;;;;;14.20;12.60;;;22.90;67.50;;;;;;5003906;28;20030;-96
2021/07/12 06:19:30;;;;;;;10.73;9.43;;;22.80;67.30;;;;;;5006940;28;20025;-96
2021/07/12 06:21:56;;;;;;;10.95;9.60;;;22.90;67.60;;;;;;5007388;28;20026;-96
2021/07/12 06:24:30;;;;;;;10.88;9.48;;;23.10;67.50;;;;;;5011420;28;20034;-95
2021/07/12 06:26:59;;;;;;;12.75;10.85;;;23.10;67.30;;;;;;5011612;28;20089;-96
2021/07/12 06:29:25;;;;;;;11.00;9.45;;;23.10;67.10;;;;;;5030005;28;20030;-96
2021/07/12 06:31:50;;;;;;;8.45;7.57;;;23.20;67.00;;;;;;5017145;28;20021;-92
2021/07/12 06:34:18;;;;;;;12.55;11.02;;;23.20;67.20;;;;;;5011277;28;20029;-94
2021/07/12 06:36:56;;;;;;;12.35;11.07;;;23.10;67.20;;;;;;5012554;28;20017;-96
2021/07/12 06:39:24;;;;;;;11.38;9.90;;;23.00;67.40;;;;;;5009308;28;20034;-95
2021/07/12 06:41:50;;;;;;;9.85;8.85;;;23.00;67.70;;;;;;5009168;28;20141;-95
2021/07/12 06:44:16;;;;;;;11.07;9.13;;;23.00;67.70;;;;;;5011466;28;20070;-96
2021/07/12 06:46:49;;;;;;;8.45;7.18;;;23.10;67.60;;;;;;5018239;28;20037;-91
2021/07/12 06:49:14;;;;;;;7.70;6.85;;;23.10;67.30;;;;;;5007920;28;20076;-96
2021/07/12 06:51:40;;;;;;;10.77;9.50;;;23.20;67.20;;;;;;4998203;28;20029;-95
2021/07/12 06:54:07;;;;;;;8.50;7.60;;;23.20;67.00;;;;;;4994417;28;20046;-95
2021/07/12 06:56:35;;;;;;;13.57;12.18;;;23.40;66.60;;;;;;5012771;28;20036;-96
2021/07/12 06:59:11;;;;;;;9.70;8.75;;;23.30;65.80;;;;;;5165480;22;20112;-96
2021/07/12 07:01:45;;;;;;;9.20;7.97;;;23.30;66.50;;;;;;5000393;28;20058;-95
2021/07/12 07:04:13;;;;;;;11.10;10.00;;;23.60;65.90;;;;;;4992666;28;20072;-90
2021/07/12 07:06:39;;;;;;;8.93;7.80;;;23.80;65.50;;;;;;4992907;28;20485;-93
2021/07/12 07:09:07;;;;;;;13.85;12.43;;;23.90;65.30;;;;;;4993103;28;20026;-91
2021/07/12 07:11:34;;;;;;;12.45;9.32;;;23.80;64.70;;;;;;4990873;28;20366;-89
2021/07/12 07:14:03;;;;;;;9.07;8.10;;;23.70;65.40;;;;;;4995231;28;20029;-92
2021/07/12 07:16:29;;;;;;;8.48;7.40;;;23.60;65.30;;;;;;4996114;28;20027;-91
2021/07/12 07:18:55;;;;;;;8.52;6.72;;;23.70;65.20;;;;;;4999796;28;20049;-92
2021/07/12 07:21:20;;;;;;;6.95;6.25;;;23.80;65.10;;;;;;4997848;28;20018;-91
2021/07/12 07:23:46;;;;;;;7.35;6.55;;;23.90;64.90;;;;;;4999620;28;20034;-91
2021/07/12 07:26:12;;;;;;;11.68;10.48;;;24.00;64.70;;;;;;5013605;28;20061;-92
2021/07/12 07:28:39;;;;;;;7.80;7.00;;;23.90;64.40;;;;;;4997194;28;20048;-92
2021/07/12 07:31:05;;;;;;;9.75;8.75;;;24.10;64.40;;;;;;5005731;28;20029;-90
2021/07/12 07:33:30;;;;;;;10.82;9.73;;;24.10;64.10;;;;;;4995170;28;20022;-93
2021/07/12 07:35:59;;;;;;;11.05;9.95;;;24.00;63.70;;;;;;5005186;28;20037;-94
2021/07/12 07:38:25;;;;;;;9.15;7.82;;;23.90;64.00;;;;;;5001197;28;20065;-92
2021/07/12 07:40:52;;;;;;;13.18;11.05;;;24.00;64.40;;;;;;4998356;28;20022;-93
2021/07/12 07:43:18;;;;;;;12.70;10.98;;;24.20;64.10;;;;;;4995529;28;20123;-91
2021/07/12 07:45:47;;;;;;;11.93;10.73;;;24.40;63.60;;;;;;5005470;28;20376;-93
2021/07/12 07:48:13;;;;;;;9.90;8.73;;;24.60;63.00;;;;;;5000960;28;20022;-94
2021/07/12 07:50:45;;;;;;;12.82;11.52;;;24.60;62.90;;;;;;4995166;28;20029;-93
2021/07/12 07:53:11;;;;;;;13.43;12.02;;;24.50;62.10;;;;;;5002811;28;20040;-95
2021/07/12 07:55:37;;;;;;;14.73;13.23;;;24.60;62.00;;;;;;5005682;28;20018;-92
2021/07/12 07:58:03;;;;;;;11.90;10.75;;;24.60;61.20;;;;;;5008229;28;20034;-90
2021/07/12 08:00:30;;;;;;;12.00;10.75;;;24.50;61.60;;;;;;4993747;28;20026;-92
2021/07/12 08:02:56;;;;;;;11.15;10.02;;;24.80;61.40;;;;;;4999753;28;20026;-95
2021/07/12 08:05:25;;;;;;;11.57;10.38;;;24.90;61.30;;;;;;5017422;28;20022;-93
2021/07/12 08:10:29;;;;;;;12.88;11.57;;;25.30;60.90;;;;;;5728399;22;20054;-96
2021/07/12 08:12:57;;;;;;;14.50;13.00;;;25.30;60.00;;;;;;5391089;23;20128;-96
2021/07/12 08:15:23;;;;;;;12.57;11.30;;;25.00;58.70;;;;;;5032813;28;20014;-96
2021/07/12 08:17:52;;;;;;;9.18;8.20;;;24.90;59.20;;;;;;5035126;28;20025;-96
2021/07/12 08:20:18;;;;;;;12.35;10.50;;;25.00;59.30;;;;;;5014324;28;20029;-96
2021/07/12 08:22:53;;;;;;;10.55;8.00;;;25.10;59.10;;;;;;5710812;23;20046;-96
2021/07/12 08:25:19;;;;;;;9.27;8.38;;;25.30;59.10;;;;;;5025349;28;20049;-96
2021/07/12 08:27:49;;;;;;;12.88;11.48;;;25.50;58.70;;;;;;5027369;28;20093;-96
2021/07/12 08:30:18;;;;;;;7.82;6.82;;;25.40;58.50;;;;;;5013140;28;20019;-96
2021/07/12 08:32:45;;;;;;;12.57;10.52;;;25.50;58.80;;;;;;5018854;28;20030;-96
2021/07/12 08:38:07;;;;;;;;;;;25.60;58.10;;;;;;5447476;22;20064;-95
2021/07/12 08:40:32;;;;;;;9.70;8.10;;;25.70;58.70;;;;;;5038943;28;19944;-96
2021/07/12 08:42:59;;;;;;;9.98;8.98;;;25.90;58.20;;;;;;5380015;22;20096;-95
2021/07/12 08:45:26;;;;;;;10.98;9.20;;;26.00;57.50;;;;;;5039593;28;20018;-95
2021/07/12 08:47:52;;;;;;;9.32;7.78;;;26.00;57.40;;;;;;5041548;28;20025;-96
2021/07/12 08:50:20;;;;;;;12.40;11.20;;;26.20;57.60;;;;;;5049449;28;20032;-96
2021/07/12 08:55:14;;;;;;;13.13;11.82;;;26.10;56.00;;;;;;5011716;28;20049;-95
2021/07/12 08:57:57;;;;;;;10.93;8.13;;;25.90;55.70;;;;;;5012893;28;20073;-96
2021/07/12 09:00:55;;;;;;;11.38;9.20;;;25.90;56.40;;;;;;5018805;28;20033;-96
2021/07/12 09:03:31;;;;;;;11.25;10.05;;;26.00;56.50;;;;;;5006583;28;20497;-96
2021/07/12 09:08:56;;;;;;;8.88;7.97;;;26.00;56.10;;;;;;5024715;28;20049;-96
2021/07/12 09:11:32;;;;;;;10.32;9.27;;;26.10;56.00;;;;;;5027189;28;20033;-94
2021/07/12 09:13:59;;;;;;;6.85;6.15;;;26.10;55.70;;;;;;5015180;28;20018;-95
2021/07/12 09:16:40;;;;;;;8.90;7.55;;;26.20;55.90;;;;;;5028744;28;20108;-94
2021/07/12 09:19:23;;;;;;;7.57;6.78;;;26.20;55.30;;;;;;5049288;28;20112;-95
2021/07/12 09:22:10;;;;;;;8.52;7.45;;;26.30;55.80;;;;;;5037060;28;20031;-93
2021/07/12 09:24:56;;;;;;;9.40;8.07;;;26.50;55.80;;;;;;5038997;28;20040;-90
2021/07/12 09:27:26;;;;;;;6.75;6.00;;;26.60;55.20;;;;;;5030552;28;20028;-92
2021/07/12 09:29:58;;;;;;;7.28;6.47;;;26.80;54.60;;;;;;5036333;28;20480;-90
2021/07/12 09:32:26;;;;;;;10.90;9.80;;;26.80;54.00;;;;;;5028444;28;20025;-90
2021/07/12 09:35:01;;;;;;;10.35;9.25;;;26.60;52.70;;;;;;5050516;28;20026;-87
2021/07/12 09:37:29;;;;;;;10.88;9.77;;;26.30;53.00;;;;;;5020570;28;20523;-96
2021/07/12 09:39:57;;;;;;;10.95;9.80;;;26.30;53.00;;;;;;5020834;28;20029;-93
2021/07/12 09:42:31;;;;;;;8.68;7.78;;;26.10;52.90;;;;;;5054588;28;20044;-94
2021/07/12 09:45:13;;;;;;;6.88;6.18;;;26.20;53.00;;;;;;5112391;22;20056;-96
2021/07/12 09:47:44;;;;;;;7.05;6.35;;;26.30;53.50;;;;;;5030707;28;20014;-93
2021/07/12 09:52:53;;;;;;;9.80;8.55;;;26.60;52.20;;;;;;5041951;28;20049;-96
2021/07/12 09:55:46;;;;;;;8.77;7.82;;;26.50;51.50;;;;;;5039344;28;20013;-96
2021/07/12 09:58:16;;;;;;;6.32;5.43;;;26.30;51.70;;;;;;5034425;28;20028;-96
2021/07/12 10:00:48;;;;;;;7.05;6.35;;;26.40;52.40;;;;;;5254147;22;20278;-95
2021/07/12 10:03:29;;;;;;;7.03;6.32;;;26.60;52.50;;;;;;5042795;28;20145;-96
2021/07/12 10:06:30;;;;;;;8.25;7.45;;;26.90;52.50;;;;;;5030683;28;20037;-96
2021/07/12 10:09:05;;;;;;;7.90;6.20;;;26.60;51.30;;;;;;5006987;28;20029;-96
2021/07/12 10:11:37;;;;;;;7.30;6.60;;;26.60;52.10;;;;;;5024676;28;20046;-94
2021/07/12 10:14:23;;;;;;;6.75;5.80;;;26.60;51.70;;;;;;5026421;28;20025;-96
2021/07/12 10:17:02;;;;;;;5.00;4.40;;;26.70;51.70;;;;;;5027255;28;20042;-96
2021/07/12 10:19:28;;;;;;;6.15;5.55;;;26.80;51.80;;;;;;5053984;23;20481;-95
2021/07/12 10:21:55;;;;;;;6.90;6.20;;;26.70;51.50;;;;;;5017935;28;20104;-96
2021/07/12 10:24:34;;;;;;;6.53;5.75;;;26.70;51.40;;;;;;5000952;28;20089;-96
2021/07/12 10:27:01;;;;;;;5.97;5.03;;;26.60;51.00;;;;;;4998148;28;20029;-96
2021/07/12 10:29:30;;;;;;;5.00;4.50;;;26.60;51.40;;;;;;5000904;28;20096;-94
2021/07/12 10:32:02;;;;;;;6.47;5.78;;;26.60;51.40;;;;;;4999992;28;20614;-92
2021/07/12 10:34:35;;;;;;;4.55;4.10;;;26.50;51.00;;;;;;4987558;28;20031;-95
2021/07/12 10:37:07;;;;;;;7.15;5.88;;;26.70;51.20;;;;;;4998298;28;20089;-94
2021/07/12 10:40:13;;;;;;;7.03;6.32;;;26.90;50.50;;;;;;5002533;28;20018;-95
2021/07/12 10:42:44;;;;;;;6.97;6.28;;;27.00;50.30;;;;;;5005710;28;20048;-95
2021/07/12 10:45:17;;;;;;;3.20;2.83;;;26.80;49.10;;;;;;5004742;28;20085;-96
2021/07/12 10:47:48;;;;;;;5.70;4.00;;;27.00;49.70;;;;;;5006166;28;20015;-96
2021/07/12 10:50:33;;;;;;;;;;;27.00;49.40;;;;;;5006127;28;20034;-95
2021/07/12 10:53:23;;;;;;;4.28;3.88;;;27.10;49.60;;;;;;4993166;28;20161;-95
2021/07/12 10:55:58;;;;;;;5.50;4.25;;;27.30;49.20;;;;;;5003571;28;20144;-94
2021/07/12 10:58:26;;;;;;;5.72;4.97;;;27.60;49.20;;;;;;5006029;28;20037;-95
2021/07/12 11:00:57;;;;;;;5.40;4.90;;;27.70;48.80;;;;;;4997534;28;20061;-93
2021/07/12 11:03:44;;;;;;;6.50;5.80;;;27.80;48.10;;;;;;4997376;28;20064;-95
2021/07/12 11:06:12;;;;;;;6.63;5.13;;;27.50;47.40;;;;;;5002224;28;20106;-95
2021/07/12 11:08:43;;;;;;;6.38;5.45;;;27.40;48.10;;;;;;4994985;28;20025;-95
2021/07/12 11:11:11;;;;;;;6.15;5.22;;;27.50;48.50;;;;;;4998952;28;20050;-96
2021/07/12 11:14:05;;;;;;;6.30;5.38;;;27.60;48.60;;;;;;4999722;28;20031;-96
2021/07/12 11:16:45;;;;;;;4.45;4.05;;;27.70;48.10;;;;;;5000813;28;20062;-96
2021/07/12 11:19:28;;;;;;;5.15;4.40;;;27.70;48.20;;;;;;5002429;28;20704;-96
2021/07/12 11:21:55;;;;;;;7.82;6.20;;;27.30;47.70;;;;;;4997987;28;20027;-96
2021/07/12 11:27:43;;;;;;;6.05;5.18;;;27.00;48.40;;;;;;4995070;28;20041;-91
2021/07/12 11:30:29;;;;;;;4.43;3.97;;;26.80;49.10;;;;;;4981354;28;20132;-93
2021/07/12 11:32:55;;;;;;;6.25;5.50;;;27.00;49.40;;;;;;4992721;28;20076;-93
2021/07/12 11:35:21;;;;;;;7.30;6.60;;;27.00;48.80;;;;;;4993799;28;20117;-94
2021/07/12 11:37:47;;;;;;;3.90;3.50;;;26.80;48.80;;;;;;4992881;28;20022;-94
2021/07/12 11:40:16;;;;;;;4.18;3.08;;;26.90;49.50;;;;;;5016786;28;20118;-95
2021/07/12 11:42:42;;;;;;;4.28;3.88;;;27.30;49.50;;;;;;5002831;28;20048;-95
2021/07/12 11:45:24;;;;;;;3.50;3.20;;;27.50;49.40;;;;;;5006592;28;20545;-96
2021/07/12 11:47:57;;;;;;;6.50;3.72;;;27.50;48.90;;;;;;5005521;28;20038;-96
2021/07/12 11:50:24;;;;;;;4.40;3.83;;;27.50;48.60;;;;;;5004657;28;20026;-95
2021/07/12 11:52:55;;;;;;;5.03;4.40;;;27.30;48.20;;;;;;5022209;28;20018;-95
2021/07/12 11:55:29;;;;;;;4.05;3.55;;;27.20;48.10;;;;;;4997068;28;20027;-95
2021/07/12 12:11:25;;;;;;;4.18;3.78;;;27.30;48.20;;;;;;5117797;22;20053;-94
2021/07/12 12:13:51;;;;;;;5.05;4.30;;;27.30;48.40;;;;;;5028997;28;20051;-93
2021/07/12 12:16:28;;;;;;;5.47;4.03;;;27.20;48.00;;;;;;5030585;28;20062;-95
2021/07/12 12:18:54;;;;;;;4.80;4.15;;;27.20;48.50;;;;;;5019022;28;20085;-96
2021/07/12 12:21:30;;;;;;;3.90;3.50;;;27.20;48.60;;;;;;5040589;28;20020;-94
2021/07/12 12:26:47;;;;;;;5.22;4.72;;;27.40;48.60;;;;;;5215675;23;20057;-95
2021/07/12 12:29:41;;;;;;;4.32;3.92;;;27.40;48.20;;;;;;5019511;28;20042;-96
2021/07/12 12:32:06;;;;;;;4.05;3.60;;;27.20;48.40;;;;;;5019919;28;20034;-96
2021/07/12 12:34:33;;;;;;;4.93;3.88;;;27.00;48.60;;;;;;5013978;28;20119;-95
2021/07/12 12:37:00;;;;;;;4.75;3.63;;;27.00;49.70;;;;;;5010720;28;20377;-91
2021/07/12 12:39:30;;;;;;;4.43;3.15;;;27.10;49.20;;;;;;5015148;28;20018;-93
2021/07/12 12:41:58;;;;;;;3.60;3.08;;;27.10;49.40;;;;;;5018396;28;20086;-95
2021/07/12 12:44:33;;;;;;;3.75;3.20;;;27.10;49.30;;;;;;5010507;28;20126;-95
2021/07/12 12:47:00;;;;;;;3.15;2.80;;;27.10;49.70;;;;;;5010864;28;20026;-96
2021/07/12 12:49:37;;;;;;;3.95;3.55;;;27.20;49.40;;;;;;5014306;28;20101;-95
2021/07/12 12:52:12;;;;;;;3.85;3.38;;;27.10;49.30;;;;;;5000461;28;20100;-95
2021/07/12 12:54:43;;;;;;;4.20;3.22;;;27.10;49.60;;;;;;5021783;28;20029;-96
2021/07/12 12:57:12;;;;;;;4.15;3.70;;;27.10;50.00;;;;;;5030528;28;20022;-96
2021/07/12 12:59:41;;;;;;;3.40;3.10;;;27.00;49.80;;;;;;5006918;28;20018;-96
2021/07/12 13:02:12;;;;;;;3.60;3.30;;;27.10;50.00;;;;;;5019302;28;20546;-96
2021/07/12 13:05:10;;;;;;;3.33;2.80;;;27.10;50.00;;;;;;5006662;28;20053;-96
2021/07/12 13:07:45;;;;;;;3.80;3.40;;;27.10;49.80;;;;;;5018688;28;20025;-95
2021/07/12 13:10:22;;;;;;;3.42;3.10;;;27.10;49.80;;;;;;5016496;28;20022;-91
2021/07/12 13:13:11;;;;;;;3.33;3.03;;;27.00;50.10;;;;;;5009011;28;20077;-92
2021/07/12 13:15:37;;;;;;;3.17;2.88;;;26.90;50.20;;;;;;5004679;28;20057;-88
2021/07/12 13:18:09;;;;;;;3.20;2.90;;;26.90;50.40;;;;;;5018795;28;20026;-93
2021/07/12 13:26:12;;;;;;;3.88;3.30;;;26.80;50.30;;;;;;5917373;22;20051;-95
2021/07/12 13:28:56;;;;;;;3.25;2.95;;;26.80;50.10;;;;;;5004080;28;20065;-95
2021/07/12 13:31:21;;;;;;;3.17;2.88;;;26.70;50.30;;;;;;5001385;28;20177;-94
2021/07/12 13:33:47;;;;;;;4.10;3.70;;;26.60;50.30;;;;;;5001691;28;20042;-95
2021/07/12 13:39:28;;;;;;;3.47;3.08;;;26.30;50.60;;;;;;4990245;28;20034;-91
2021/07/12 13:41:53;;;;;;;3.75;3.10;;;26.20;50.90;;;;;;4998420;28;20011;-91